FFT2207 KMCI-KDEN
Flight info
| Callsign | FFT2207 |
|---|---|
| Flight time | N/A |
| Altitude | 30000 |
| Route | WLDCT6 SLN J24 OATHE CLASH5 |
| Aircraft | A319/M-SDE3FGHIRWY/LB1 |
Departure
| Time | 2026-05-05 01:48 |
|---|---|
| Airport | Kansas City International Airport (KMCI) |
Arrival
| Time | N/A |
|---|---|
| Airport | Denver International Airport (KDEN) |
| Time | Latitude | Longitude | Altitude | Speed | Heading |
|---|---|---|---|---|---|
| 2026-05-05 01:10 | 39.30090 | -94.72293 | 1018 ft | 0 kts | 103° |
| 2026-05-05 01:25 | 39.30093 | -94.72306 | 1017 ft | 3 kts | 92° |
| 2026-05-05 01:26 | 39.30090 | -94.72327 | 1017 ft | 3 kts | 46° |
| 2026-05-05 01:26 | 39.30076 | -94.72339 | 1018 ft | 2 kts | 14° |
| 2026-05-05 01:26 | 39.30073 | -94.72341 | 1018 ft | 0 kts | 13° |
| 2026-05-05 01:35 | 39.30124 | -94.72326 | 1017 ft | 12 kts | 11° |
| 2026-05-05 01:36 | 39.30172 | -94.72333 | 1017 ft | 6 kts | 325° |
| 2026-05-05 01:36 | 39.30199 | -94.72373 | 1016 ft | 5 kts | 317° |
| 2026-05-05 01:36 | 39.30231 | -94.72387 | 1016 ft | 5 kts | 357° |
| 2026-05-05 01:36 | 39.30252 | -94.72384 | 1016 ft | 3 kts | 7° |
| 2026-05-05 01:37 | 39.30290 | -94.72373 | 1015 ft | 8 kts | 13° |
| 2026-05-05 01:37 | 39.30362 | -94.72350 | 1014 ft | 13 kts | 14° |
| 2026-05-05 01:37 | 39.30457 | -94.72324 | 1013 ft | 14 kts | 12° |
| 2026-05-05 01:37 | 39.30550 | -94.72297 | 1012 ft | 13 kts | 13° |
| 2026-05-05 01:38 | 39.30639 | -94.72269 | 1011 ft | 13 kts | 13° |
| 2026-05-05 01:38 | 39.30725 | -94.72244 | 1010 ft | 13 kts | 12° |
| 2026-05-05 01:38 | 39.30829 | -94.72214 | 1009 ft | 16 kts | 12° |
| 2026-05-05 01:38 | 39.30934 | -94.72183 | 1008 ft | 15 kts | 13° |
| 2026-05-05 01:39 | 39.31038 | -94.72151 | 1006 ft | 15 kts | 13° |
| 2026-05-05 01:39 | 39.31148 | -94.72120 | 1005 ft | 17 kts | 12° |
| 2026-05-05 01:39 | 39.31271 | -94.72083 | 1003 ft | 19 kts | 13° |
| 2026-05-05 01:39 | 39.31408 | -94.72043 | 1002 ft | 22 kts | 13° |
| 2026-05-05 01:40 | 39.31552 | -94.72000 | 1000 ft | 22 kts | 13° |
| 2026-05-05 01:40 | 39.31704 | -94.71954 | 998 ft | 21 kts | 13° |
| 2026-05-05 01:40 | 39.31855 | -94.71909 | 1002 ft | 23 kts | 13° |
| 2026-05-05 01:40 | 39.32000 | -94.71867 | 1001 ft | 17 kts | 13° |
| 2026-05-05 01:41 | 39.32110 | -94.71835 | 997 ft | 13 kts | 12° |
| 2026-05-05 01:41 | 39.32158 | -94.71845 | 995 ft | 5 kts | 328° |
| 2026-05-05 01:41 | 39.32168 | -94.71855 | 995 ft | 0 kts | 318° |
| 2026-05-05 01:42 | 39.32176 | -94.71869 | 994 ft | 3 kts | 304° |
| 2026-05-05 01:43 | 39.32181 | -94.71887 | 994 ft | 0 kts | 286° |
| 2026-05-05 01:43 | 39.32190 | -94.71943 | 998 ft | 6 kts | 281° |
| 2026-05-05 01:44 | 39.32193 | -94.71958 | 996 ft | 0 kts | 281° |
| 2026-05-05 01:45 | 39.32193 | -94.71959 | 996 ft | 1 kts | 281° |
| 2026-05-05 01:45 | 39.32197 | -94.71983 | 998 ft | 4 kts | 281° |
| 2026-05-05 01:46 | 39.32201 | -94.72041 | 994 ft | 7 kts | 265° |
| 2026-05-05 01:46 | 39.32183 | -94.72085 | 997 ft | 5 kts | 223° |
| 2026-05-05 01:46 | 39.32161 | -94.72098 | 995 ft | 2 kts | 197° |
| 2026-05-05 01:46 | 39.32156 | -94.72099 | 995 ft | 0 kts | 195° |
| 2026-05-05 01:47 | 39.32054 | -94.72130 | 999 ft | 49 kts | 193° |
| 2026-05-05 01:47 | 39.31473 | -94.72302 | 1003 ft | 118 kts | 193° |
| 2026-05-05 01:47 | 39.30491 | -94.72603 | 1050 ft | 167 kts | 194° |
| 2026-05-05 01:47 | 39.29275 | -94.72962 | 1446 ft | 190 kts | 193° |
| 2026-05-05 01:48 | 39.27950 | -94.73329 | 2085 ft | 197 kts | 193° |
| 2026-05-05 01:48 | 39.26617 | -94.73722 | 2879 ft | 197 kts | 200° |
| 2026-05-05 01:48 | 39.25232 | -94.74154 | 3240 ft | 219 kts | 181° |
| 2026-05-05 01:48 | 39.23739 | -94.73388 | 3669 ft | 249 kts | 140° |
| 2026-05-05 01:49 | 39.22877 | -94.71446 | 4449 ft | 263 kts | 103° |
| 2026-05-05 01:49 | 39.23041 | -94.69092 | 5261 ft | 271 kts | 66° |
| 2026-05-05 01:49 | 39.24219 | -94.67243 | 6115 ft | 270 kts | 30° |
| 2026-05-05 01:49 | 39.25980 | -94.66576 | 6945 ft | 264 kts | 354° |
| 2026-05-05 01:50 | 39.27643 | -94.67335 | 7870 ft | 252 kts | 311° |
| 2026-05-05 01:50 | 39.28672 | -94.69185 | 8469 ft | 264 kts | 286° |
| 2026-05-05 01:50 | 39.29055 | -94.71576 | 8928 ft | 283 kts | 267° |
| 2026-05-05 01:50 | 39.28911 | -94.74171 | 9530 ft | 298 kts | 258° |
| 2026-05-05 01:51 | 39.28564 | -94.76850 | 10229 ft | 306 kts | 262° |
| 2026-05-05 01:51 | 39.28333 | -94.78685 | 10535 ft | 319 kts | 262° |
| 2026-05-05 01:51 | 39.27986 | -94.81564 | 11177 ft | 328 kts | 262° |
| 2026-05-05 01:51 | 39.27647 | -94.84499 | 12024 ft | 331 kts | 263° |
| 2026-05-05 01:52 | 39.27311 | -94.87441 | 12899 ft | 332 kts | 263° |
| 2026-05-05 01:52 | 39.26970 | -94.90399 | 13737 ft | 334 kts | 263° |
| 2026-05-05 01:52 | 39.26626 | -94.93375 | 14481 ft | 337 kts | 263° |
| 2026-05-05 01:52 | 39.26274 | -94.96381 | 15181 ft | 341 kts | 263° |
| 2026-05-05 01:53 | 39.25913 | -94.99424 | 15838 ft | 345 kts | 263° |
| 2026-05-05 01:53 | 39.25549 | -95.02507 | 16525 ft | 349 kts | 263° |
| 2026-05-05 01:53 | 39.25184 | -95.05616 | 17216 ft | 352 kts | 263° |
| 2026-05-05 01:53 | 39.24817 | -95.08753 | 17891 ft | 356 kts | 263° |
| 2026-05-05 01:54 | 39.24439 | -95.11922 | 18485 ft | 359 kts | 263° |
| 2026-05-05 01:54 | 39.24060 | -95.15119 | 19069 ft | 362 kts | 263° |